Time;durP1;ratioP1;P1;durP2;ratioP2;P2;SDS_P1;SDS_P2;PMS_P1;PMS_P2;Temp;Humidity;BMP_temperature;BMP_pressure;BME280_temperature;BME280_humidity;BME280_pressure;Samples;Min_cycle;Max_cycle;Signal;HPM_P1;HPM_P2
2024/03/04 00:00:23;;;;;;;21.10;18.83;;;13.10;99.90;;;;;;5055689;28;20232;-77
2024/03/04 00:02:50;;;;;;;21.38;18.98;;;13.10;99.90;;;;;;5055983;28;20544;-77
2024/03/04 00:05:17;;;;;;;21.10;18.80;;;13.10;99.90;;;;;;5055004;28;20316;-79
2024/03/04 00:07:45;;;;;;;20.92;18.73;;;13.10;99.90;;;;;;5055033;28;20235;-77
2024/03/04 00:10:12;;;;;;;22.58;19.80;;;13.10;99.90;;;;;;5055332;28;20225;-79
2024/03/04 00:12:41;;;;;;;22.85;18.15;;;13.00;99.90;;;;;;5054793;28;20686;-79
2024/03/04 00:15:11;;;;;;;25.17;21.80;;;13.00;99.90;;;;;;5053808;28;20236;-77
2024/03/04 00:17:42;;;;;;;22.20;18.45;;;12.90;99.90;;;;;;5054588;28;20463;-79
2024/03/04 00:20:14;;;;;;;20.75;18.55;;;12.80;99.90;;;;;;5054625;28;20525;-77
2024/03/04 00:22:45;;;;;;;21.52;19.38;;;12.90;99.90;;;;;;5055526;28;20263;-77
2024/03/04 00:25:15;;;;;;;22.15;19.23;;;12.80;99.90;;;;;;5055084;28;20259;-77
2024/03/04 00:27:43;;;;;;;23.52;21.00;;;12.80;99.90;;;;;;5054537;28;20247;-77
2024/03/04 00:30:12;;;;;;;22.08;19.67;;;12.70;99.90;;;;;;5053764;28;20316;-77
2024/03/04 00:32:44;;;;;;;24.02;20.10;;;12.70;99.90;;;;;;5056253;28;20220;-79
2024/03/04 00:35:15;;;;;;;25.08;21.52;;;12.70;99.90;;;;;;5055743;28;20220;-79
2024/03/04 00:37:42;;;;;;;23.77;21.13;;;12.70;99.90;;;;;;5053789;28;20224;-77
2024/03/04 00:40:12;;;;;;;22.90;20.48;;;12.70;99.90;;;;;;5053599;28;20233;-79
2024/03/04 00:42:40;;;;;;;20.85;18.75;;;12.70;99.90;;;;;;5053368;28;20224;-77
2024/03/04 00:45:07;;;;;;;27.48;21.50;;;12.60;99.90;;;;;;5053669;28;20225;-79
2024/03/04 00:47:34;;;;;;;24.55;21.38;;;12.70;99.90;;;;;;5054123;28;20216;-76
2024/03/04 00:50:03;;;;;;;25.10;21.40;;;12.60;99.90;;;;;;5053994;28;20220;-76
2024/03/04 00:52:30;;;;;;;24.88;21.10;;;12.70;99.90;;;;;;5053259;28;20227;-79
2024/03/04 00:54:57;;;;;;;24.30;21.80;;;12.60;99.90;;;;;;5053813;28;20220;-79
2024/03/04 00:57:24;;;;;;;27.05;22.73;;;12.60;99.90;;;;;;5053039;28;20224;-77
2024/03/04 00:59:51;;;;;;;24.90;22.27;;;12.60;99.90;;;;;;5053620;28;20220;-79
2024/03/04 01:02:18;;;;;;;23.85;21.45;;;12.60;99.90;;;;;;5053206;28;20308;-76
2024/03/04 01:04:45;;;;;;;24.70;21.80;;;12.60;99.90;;;;;;5053340;28;20216;-77
2024/03/04 01:07:15;;;;;;;26.35;23.05;;;12.50;99.90;;;;;;5053091;28;20298;-80
2024/03/04 01:09:42;;;;;;;29.73;22.80;;;12.50;99.90;;;;;;5053509;28;20279;-79
2024/03/04 01:12:08;;;;;;;26.45;23.55;;;12.50;99.90;;;;;;5052818;28;20258;-77
2024/03/04 01:14:38;;;;;;;29.40;26.30;;;12.50;99.90;;;;;;5054332;28;20224;-79
2024/03/04 01:17:12;;;;;;;28.88;24.77;;;12.40;99.90;;;;;;5053579;28;20382;-79
2024/03/04 01:19:45;;;;;;;28.63;25.00;;;12.40;99.90;;;;;;5051509;28;20298;-80
2024/03/04 01:22:16;;;;;;;29.00;24.75;;;12.40;99.90;;;;;;5051087;28;20224;-77
2024/03/04 01:24:43;;;;;;;29.45;25.20;;;12.30;99.90;;;;;;5052689;28;20225;-77
2024/03/04 01:27:10;;;;;;;36.08;25.23;;;12.30;99.90;;;;;;5052699;28;20238;-78
2024/03/04 01:29:41;;;;;;;27.98;24.33;;;12.30;99.90;;;;;;5052531;28;20244;-78
2024/03/04 01:32:09;;;;;;;27.40;24.40;;;12.20;99.90;;;;;;5053137;28;20290;-79
2024/03/04 01:34:40;;;;;;;30.80;26.10;;;12.20;99.90;;;;;;5052541;28;20307;-79
2024/03/04 01:37:07;;;;;;;29.33;26.40;;;12.20;99.90;;;;;;5053259;28;20590;-78
2024/03/04 01:39:37;;;;;;;32.30;28.23;;;12.20;99.90;;;;;;5052572;28;20229;-78
2024/03/04 01:42:04;;;;;;;30.58;26.70;;;12.20;99.90;;;;;;5052854;28;20235;-76
2024/03/04 01:44:33;;;;;;;30.40;25.80;;;12.10;99.90;;;;;;5052442;28;20229;-76
2024/03/04 01:47:02;;;;;;;32.22;28.42;;;12.10;99.90;;;;;;5052802;28;20228;-76
2024/03/04 01:49:30;;;;;;;30.52;26.50;;;12.10;99.90;;;;;;5052562;28;20718;-76
2024/03/04 01:51:57;;;;;;;29.27;25.67;;;12.10;99.90;;;;;;5052971;28;20224;-76
2024/03/04 01:54:25;;;;;;;30.10;26.70;;;12.10;99.90;;;;;;5052337;28;20252;-78
2024/03/04 01:56:55;;;;;;;28.25;25.42;;;12.10;99.90;;;;;;5052869;28;20220;-78
2024/03/04 01:59:22;;;;;;;39.33;29.80;;;12.10;99.90;;;;;;5052306;28;20225;-77
2024/03/04 02:01:52;;;;;;;31.45;28.08;;;12.10;99.90;;;;;;5052872;28;20609;-76
2024/03/04 02:04:22;;;;;;;34.80;29.42;;;12.10;99.90;;;;;;5052707;28;20228;-76
2024/03/04 02:06:49;;;;;;;31.30;28.00;;;12.10;99.90;;;;;;5052626;28;20217;-79
2024/03/04 02:09:19;;;;;;;32.17;28.77;;;12.10;99.90;;;;;;5052929;28;20228;-78
2024/03/04 02:11:46;;;;;;;37.45;29.05;;;12.10;99.90;;;;;;5052632;28;20542;-79
2024/03/04 02:14:15;;;;;;;35.30;31.52;;;12.20;99.90;;;;;;5052702;28;20221;-79
2024/03/04 02:16:42;;;;;;;32.08;27.42;;;12.20;99.90;;;;;;5053839;28;20235;-79
2024/03/04 02:19:15;;;;;;;35.47;29.88;;;12.20;99.90;;;;;;5056835;28;20247;-79
2024/03/04 02:21:49;;;;;;;35.70;29.23;;;12.20;99.90;;;;;;5056114;28;20229;-76
2024/03/04 02:24:17;;;;;;;36.33;28.70;;;12.30;99.90;;;;;;5056347;28;20232;-76
2024/03/04 02:26:45;;;;;;;33.53;29.88;;;12.20;99.90;;;;;;5056115;28;20221;-79
2024/03/04 02:29:13;;;;;;;33.00;29.38;;;12.30;99.90;;;;;;5056544;28;20290;-79
2024/03/04 02:31:40;;;;;;;36.03;28.42;;;12.30;99.90;;;;;;5056175;28;20233;-76
2024/03/04 02:34:08;;;;;;;34.13;30.42;;;12.30;99.90;;;;;;5056422;28;20603;-79
2024/03/04 02:36:36;;;;;;;34.45;28.92;;;12.40;99.90;;;;;;5055707;28;20229;-79
2024/03/04 02:39:04;;;;;;;40.63;29.90;;;12.40;99.90;;;;;;5056353;28;20686;-76
2024/03/04 02:41:33;;;;;;;34.40;30.70;;;12.40;99.90;;;;;;5055439;28;20233;-77
2024/03/04 02:44:00;;;;;;;32.17;28.83;;;12.40;99.90;;;;;;5056374;28;20881;-76
2024/03/04 02:46:27;;;;;;;34.88;31.08;;;12.40;99.90;;;;;;5056108;28;20228;-76
2024/03/04 02:48:55;;;;;;;37.17;31.38;;;12.40;99.90;;;;;;5055721;28;20286;-76
2024/03/04 02:51:22;;;;;;;35.22;30.90;;;12.30;99.90;;;;;;5056047;28;20685;-76
2024/03/04 02:53:49;;;;;;;35.47;30.08;;;12.30;99.90;;;;;;5055742;28;20242;-79
2024/03/04 02:56:16;;;;;;;36.05;32.28;;;12.30;99.90;;;;;;5056121;28;20308;-79
2024/03/04 02:58:44;;;;;;;33.35;29.85;;;12.30;99.90;;;;;;5055733;28;20216;-78
2024/03/04 03:01:11;;;;;;;34.80;30.85;;;12.30;99.90;;;;;;5055771;28;20236;-78
2024/03/04 03:03:38;;;;;;;40.22;33.20;;;12.30;99.90;;;;;;5046413;28;20623;-78
2024/03/04 03:06:06;;;;;;;35.80;32.03;;;12.30;99.90;;;;;;5070334;28;20567;-78
2024/03/04 03:08:33;;;;;;;39.22;33.28;;;12.20;99.90;;;;;;5055087;28;20224;-77
2024/03/04 03:11:00;;;;;;;36.83;30.48;;;12.20;99.90;;;;;;5055635;28;20303;-78
2024/03/04 03:13:28;;;;;;;34.65;30.95;;;12.20;99.90;;;;;;5055514;28;20239;-76
2024/03/04 03:15:56;;;;;;;36.83;30.17;;;12.20;99.90;;;;;;5055221;28;20223;-78
2024/03/04 03:18:23;;;;;;;35.85;31.48;;;12.20;99.90;;;;;;5055547;28;20584;-75
2024/03/04 03:20:52;;;;;;;37.42;32.72;;;12.10;99.90;;;;;;5054868;28;20248;-75
2024/03/04 03:23:19;;;;;;;35.55;31.77;;;12.10;99.90;;;;;;5055322;28;20721;-76
2024/03/04 03:25:46;;;;;;;38.67;33.33;;;12.00;99.90;;;;;;5055047;28;20232;-78
2024/03/04 03:28:14;;;;;;;38.67;33.47;;;12.00;99.90;;;;;;5055046;28;20250;-78
2024/03/04 03:30:42;;;;;;;36.10;31.90;;;11.90;99.90;;;;;;5054188;28;20228;-75
2024/03/04 03:33:11;;;;;;;37.45;33.33;;;11.90;99.90;;;;;;5055102;28;20228;-75
2024/03/04 03:35:38;;;;;;;38.17;34.15;;;11.90;99.90;;;;;;5054672;28;20263;-76
2024/03/04 03:38:05;;;;;;;34.50;30.58;;;11.80;99.90;;;;;;5055374;28;20681;-78
2024/03/04 03:40:33;;;;;;;37.30;33.28;;;11.90;99.90;;;;;;5055192;28;20228;-78
2024/03/04 03:42:59;;;;;;;39.47;33.40;;;11.80;99.90;;;;;;5054544;28;20221;-76
2024/03/04 03:45:26;;;;;;;35.70;30.40;;;11.80;99.90;;;;;;5054990;28;20248;-78
2024/03/04 03:47:54;;;;;;;39.45;31.10;;;11.90;99.90;;;;;;5054747;28;20336;-78
2024/03/04 03:50:22;;;;;;;36.30;32.45;;;11.90;99.90;;;;;;5054222;28;20598;-76
2024/03/04 03:52:49;;;;;;;38.75;34.45;;;11.90;99.90;;;;;;5054450;28;20265;-77
2024/03/04 03:55:16;;;;;;;37.35;32.65;;;11.80;99.90;;;;;;5055216;28;20230;-78
2024/03/04 03:57:44;;;;;;;38.63;32.22;;;11.80;99.90;;;;;;5054510;28;20324;-78
2024/03/04 04:00:13;;;;;;;40.17;34.42;;;11.80;99.90;;;;;;5054822;28;20229;-78
2024/03/04 04:02:40;;;;;;;42.28;34.40;;;11.80;99.90;;;;;;5054349;28;20694;-78
2024/03/04 04:05:08;;;;;;;39.17;32.83;;;11.80;99.90;;;;;;5054422;28;20228;-76
2024/03/04 04:07:36;;;;;;;39.10;33.92;;;11.80;99.90;;;;;;5059917;28;20231;-76
2024/03/04 04:10:04;;;;;;;37.97;33.30;;;11.80;99.90;;;;;;5053612;28;20236;-76
2024/03/04 04:12:31;;;;;;;40.95;33.53;;;11.80;99.90;;;;;;5054471;28;20240;-78
2024/03/04 04:14:58;;;;;;;40.33;33.88;;;11.80;99.90;;;;;;5054182;28;20228;-76
2024/03/04 04:17:25;;;;;;;41.65;35.83;;;11.80;99.90;;;;;;5054641;28;20224;-77
2024/03/04 04:19:52;;;;;;;38.65;34.58;;;11.80;99.90;;;;;;5053898;28;20316;-80
2024/03/04 04:22:19;;;;;;;43.28;35.25;;;11.80;99.90;;;;;;5054207;28;20229;-77
2024/03/04 04:24:48;;;;;;;38.67;34.53;;;11.80;99.90;;;;;;5053720;28;20224;-75
2024/03/04 04:27:14;;;;;;;43.28;34.72;;;11.80;99.90;;;;;;5054283;28;20216;-75
2024/03/04 04:29:45;;;;;;;39.85;34.10;;;11.80;99.90;;;;;;5054116;28;20239;-80
2024/03/04 04:32:13;;;;;;;37.95;33.60;;;11.80;99.90;;;;;;5054113;28;20220;-80
2024/03/04 04:34:42;;;;;;;39.22;33.78;;;11.80;99.90;;;;;;5054036;28;20216;-80
2024/03/04 04:37:09;;;;;;;38.38;33.83;;;11.80;99.90;;;;;;5053683;28;20663;-77
2024/03/04 04:39:38;;;;;;;42.10;33.90;;;11.70;99.90;;;;;;5053269;28;20246;-75
2024/03/04 04:42:07;;;;;;;36.80;32.80;;;11.70;99.90;;;;;;5052824;28;20221;-78
2024/03/04 04:44:34;;;;;;;40.30;34.35;;;11.70;99.90;;;;;;5054160;28;20224;-77
2024/03/04 04:47:01;;;;;;;35.67;31.80;;;11.70;99.90;;;;;;5053400;28;20339;-77
2024/03/04 04:49:28;;;;;;;38.75;33.70;;;11.60;99.90;;;;;;5053671;28;20217;-80
2024/03/04 04:51:55;;;;;;;36.88;32.92;;;11.60;99.90;;;;;;5053431;28;20316;-77
2024/03/04 04:54:22;;;;;;;45.10;37.20;;;11.70;99.90;;;;;;5053266;28;20225;-77
2024/03/04 04:56:51;;;;;;;39.28;35.13;;;11.60;99.90;;;;;;5053727;28;20216;-78
2024/03/04 04:59:19;;;;;;;39.75;35.10;;;11.60;99.90;;;;;;5053858;28;20250;-79
2024/03/04 05:01:45;;;;;;;41.65;36.13;;;11.50;99.90;;;;;;5053693;28;20224;-80
2024/03/04 05:04:12;;;;;;;40.97;34.57;;;11.50;99.90;;;;;;5053135;28;20216;-79
2024/03/04 05:06:39;;;;;;;45.90;37.50;;;11.50;99.90;;;;;;5053621;28;20462;-80
2024/03/04 05:09:08;;;;;;;44.30;34.85;;;11.50;99.90;;;;;;5053047;28;20274;-77
2024/03/04 05:11:35;;;;;;;45.15;37.15;;;11.50;99.90;;;;;;5053583;28;20226;-77
2024/03/04 05:14:05;;;;;;;40.30;34.60;;;11.50;99.90;;;;;;5053159;28;20247;-77
2024/03/04 05:16:33;;;;;;;42.45;36.20;;;11.50;99.90;;;;;;5053514;28;20232;-77
2024/03/04 05:19:04;;;;;;;43.65;38.22;;;11.40;99.90;;;;;;5052814;28;20217;-77
2024/03/04 05:21:31;;;;;;;41.78;35.78;;;11.40;99.90;;;;;;5053284;28;20221;-77
2024/03/04 05:23:58;;;;;;;45.63;36.17;;;11.40;99.90;;;;;;5052769;28;20225;-79
2024/03/04 05:26:25;;;;;;;45.08;38.50;;;11.40;99.90;;;;;;5052939;28;20224;-77
2024/03/04 05:28:52;;;;;;;41.08;36.25;;;11.40;99.90;;;;;;5053519;28;20243;-77
2024/03/04 05:31:19;;;;;;;46.67;37.53;;;11.30;99.90;;;;;;5053102;28;20220;-77
2024/03/04 05:33:47;;;;;;;41.92;37.17;;;11.30;99.90;;;;;;5052863;28;20232;-77
2024/03/04 05:36:14;;;;;;;57.40;40.92;;;11.30;99.90;;;;;;5052592;28;20224;-77
2024/03/04 05:38:41;;;;;;;44.38;39.30;;;11.20;99.90;;;;;;5053149;28;20308;-77
2024/03/04 05:41:10;;;;;;;43.70;38.85;;;11.20;99.90;;;;;;5052305;28;20236;-77
2024/03/04 05:43:37;;;;;;;45.05;36.42;;;11.20;99.90;;;;;;5052813;28;20298;-76
2024/03/04 05:46:04;;;;;;;47.50;40.65;;;11.30;99.90;;;;;;5052601;28;20233;-79
2024/03/04 05:48:32;;;;;;;46.72;35.92;;;11.30;99.90;;;;;;5052683;28;20224;-79
2024/03/04 05:51:03;;;;;;;41.28;36.67;;;11.20;99.90;;;;;;5053142;28;20286;-79
2024/03/04 05:53:30;;;;;;;48.80;39.17;;;11.30;99.90;;;;;;5057206;28;20228;-76
2024/03/04 05:55:57;;;;;;;45.20;37.33;;;11.30;99.90;;;;;;5056724;28;20235;-77
2024/03/04 05:58:26;;;;;;;41.08;35.25;;;11.20;99.90;;;;;;5057262;28;20235;-76
2024/03/04 06:00:53;;;;;;;40.28;36.08;;;11.30;99.90;;;;;;5057095;28;20282;-77
2024/03/04 06:03:20;;;;;;;42.28;36.13;;;11.30;99.90;;;;;;5055835;28;20647;-76
2024/03/04 06:05:47;;;;;;;42.25;37.60;;;11.30;99.90;;;;;;5057479;28;20225;-77
2024/03/04 06:08:15;;;;;;;44.30;39.03;;;11.30;99.90;;;;;;5056789;28;20567;-77
2024/03/04 06:10:43;;;;;;;43.38;35.95;;;11.30;99.90;;;;;;5056833;28;20225;-77
2024/03/04 06:13:10;;;;;;;43.40;37.85;;;11.30;99.90;;;;;;5056632;28;20282;-77
2024/03/04 06:15:37;;;;;;;45.40;39.92;;;11.30;99.90;;;;;;5056491;28;20241;-76
2024/03/04 06:18:05;;;;;;;44.72;37.05;;;11.30;99.90;;;;;;5056096;28;20307;-77
2024/03/04 06:20:34;;;;;;;47.63;38.05;;;11.30;99.90;;;;;;5056312;28;20273;-77
2024/03/04 06:23:01;;;;;;;48.55;39.10;;;11.30;99.90;;;;;;5055895;28;20232;-78
2024/03/04 06:25:29;;;;;;;44.35;37.67;;;11.30;99.90;;;;;;5056450;28;20232;-79
2024/03/04 06:27:56;;;;;;;43.83;36.47;;;11.30;99.90;;;;;;5056174;28;20663;-80
2024/03/04 06:30:23;;;;;;;50.50;37.17;;;11.30;99.90;;;;;;5055705;28;20282;-79
2024/03/04 06:32:56;;;;;;;42.08;37.42;;;11.30;99.90;;;;;;5055832;28;20308;-80
2024/03/04 06:35:23;;;;;;;45.13;37.75;;;11.30;99.90;;;;;;5055920;28;20236;-80
2024/03/04 06:37:51;;;;;;;47.13;37.88;;;11.30;99.90;;;;;;5056178;28;20227;-79
2024/03/04 06:40:19;;;;;;;44.55;37.80;;;11.30;99.90;;;;;;5055645;28;20307;-79
2024/03/04 06:42:48;;;;;;;46.35;38.33;;;11.30;99.90;;;;;;5055640;28;20286;-79
2024/03/04 06:45:16;;;;;;;41.10;35.58;;;11.30;99.90;;;;;;5055031;28;20225;-79
2024/03/04 06:47:43;;;;;;;44.00;36.53;;;11.30;99.90;;;;;;5056161;28;20228;-79
2024/03/04 06:50:10;;;;;;;42.83;35.80;;;11.40;99.90;;;;;;5055488;28;20320;-77
2024/03/04 06:52:37;;;;;;;43.58;36.45;;;11.40;99.90;;;;;;5056016;28;20247;-77
2024/03/04 06:55:05;;;;;;;40.58;36.13;;;11.40;99.90;;;;;;5055262;28;20225;-77
2024/03/04 06:57:36;;;;;;;43.30;38.03;;;11.40;99.90;;;;;;5055794;28;20221;-78
2024/03/04 07:00:09;;;;;;;45.38;40.08;;;11.50;99.90;;;;;;5054799;28;20311;-78
2024/03/04 07:02:36;;;;;;;43.83;34.83;;;11.50;99.90;;;;;;5055030;28;20599;-77
2024/03/04 07:05:03;;;;;;;41.75;36.63;;;11.50;99.90;;;;;;5055759;28;20228;-77
2024/03/04 07:07:30;;;;;;;44.67;35.47;;;11.50;99.90;;;;;;5055266;28;20229;-77
2024/03/04 07:09:59;;;;;;;39.40;35.20;;;11.50;99.90;;;;;;5055348;28;20235;-77
2024/03/04 07:12:27;;;;;;;42.40;37.72;;;11.50;99.90;;;;;;5054619;28;20232;-77
2024/03/04 07:14:54;;;;;;;41.58;35.65;;;11.60;99.90;;;;;;5055484;28;20216;-77
2024/03/04 07:17:22;;;;;;;44.53;36.58;;;11.50;99.90;;;;;;5054872;28;20224;-77
2024/03/04 07:19:49;;;;;;;39.60;35.30;;;11.50;99.90;;;;;;5055561;28;20224;-77
2024/03/04 07:22:24;;;;;;;39.72;35.05;;;11.50;99.90;;;;;;5054491;28;20283;-77
2024/03/04 07:24:51;;;;;;;42.40;36.25;;;11.50;99.90;;;;;;5055505;28;20224;-77
2024/03/04 07:27:18;;;;;;;41.60;34.90;;;11.50;99.90;;;;;;5054867;28;20224;-77
2024/03/04 07:29:45;;;;;;;42.47;37.90;;;11.50;99.90;;;;;;5055147;28;20231;-78
2024/03/04 07:32:13;;;;;;;40.92;35.15;;;11.50;99.90;;;;;;5054907;28;20224;-78
2024/03/04 07:34:42;;;;;;;53.58;41.72;;;11.60;99.90;;;;;;5056303;28;20227;-77
2024/03/04 07:37:09;;;;;;;44.83;38.17;;;11.60;99.90;;;;;;5055097;28;20753;-79
2024/03/04 07:39:36;;;;;;;42.22;36.08;;;11.50;99.90;;;;;;5055241;28;20252;-79
2024/03/04 07:42:06;;;;;;;47.35;37.97;;;11.50;99.90;;;;;;5046207;28;20243;-77
2024/03/04 07:44:37;;;;;;;51.55;39.03;;;11.60;99.90;;;;;;5054213;28;20239;-79
2024/03/04 07:47:06;;;;;;;43.00;36.67;;;11.50;99.90;;;;;;5055076;28;20235;-79
2024/03/04 07:49:33;;;;;;;43.88;36.65;;;11.60;99.90;;;;;;5054457;28;20224;-79
2024/03/04 07:52:03;;;;;;;39.88;34.40;;;11.50;99.90;;;;;;5054350;28;20223;-80
2024/03/04 07:54:30;;;;;;;40.03;34.95;;;11.60;99.90;;;;;;5054235;28;20307;-80
2024/03/04 07:56:57;;;;;;;43.63;38.85;;;11.70;99.90;;;;;;5054785;28;20231;-79
2024/03/04 07:59:24;;;;;;;43.90;37.45;;;11.70;99.90;;;;;;5054356;28;20351;-79
2024/03/04 08:01:51;;;;;;;41.17;34.58;;;11.70;99.90;;;;;;5054626;28;20213;-79
2024/03/04 08:04:19;;;;;;;42.67;37.10;;;11.70;99.90;;;;;;5054008;28;20244;-79
2024/03/04 08:06:48;;;;;;;40.97;36.55;;;11.80;99.90;;;;;;5054206;28;20221;-78
2024/03/04 08:09:16;;;;;;;40.88;36.50;;;11.80;99.90;;;;;;5054186;28;20249;-78
2024/03/04 08:11:43;;;;;;;42.50;35.97;;;11.80;99.90;;;;;;5054421;28;20694;-79
2024/03/04 08:14:10;;;;;;;42.65;36.80;;;11.80;99.90;;;;;;5053595;28;20237;-78
2024/03/04 08:16:37;;;;;;;42.28;36.13;;;11.80;99.90;;;;;;5054038;28;20221;-79
2024/03/04 08:19:05;;;;;;;44.60;38.55;;;11.80;99.90;;;;;;5054288;28;20282;-79
2024/03/04 08:21:32;;;;;;;44.13;37.20;;;11.80;99.90;;;;;;5053751;28;20248;-79
2024/03/04 08:23:59;;;;;;;40.85;36.35;;;11.80;99.90;;;;;;5054616;28;20225;-79
2024/03/04 08:26:28;;;;;;;40.95;35.45;;;11.80;99.90;;;;;;5053516;28;20221;-78
2024/03/04 08:28:58;;;;;;;45.08;35.75;;;11.90;99.90;;;;;;5053677;28;20220;-79
2024/03/04 08:31:25;;;;;;;44.22;37.70;;;11.90;99.90;;;;;;5053513;28;20236;-79
2024/03/04 08:33:52;;;;;;;44.63;37.97;;;12.00;99.90;;;;;;5053592;28;20238;-78
2024/03/04 08:36:21;;;;;;;38.90;34.25;;;11.90;99.90;;;;;;5051620;28;20556;-79
2024/03/04 08:38:48;;;;;;;42.00;34.67;;;12.00;99.90;;;;;;5062032;28;20221;-79
2024/03/04 08:41:15;;;;;;;39.90;35.55;;;12.10;99.90;;;;;;5056116;28;20239;-79
2024/03/04 08:43:45;;;;;;;42.60;36.60;;;12.20;99.90;;;;;;5054715;28;20518;-79
2024/03/04 08:46:12;;;;;;;39.50;35.17;;;12.20;99.90;;;;;;5053857;28;20255;-79
2024/03/04 08:48:39;;;;;;;38.28;33.35;;;12.30;99.90;;;;;;5053371;28;20439;-79
2024/03/04 08:51:07;;;;;;;38.80;33.53;;;12.40;99.90;;;;;;5051772;28;20334;-79
2024/03/04 08:53:34;;;;;;;45.17;36.72;;;12.50;99.90;;;;;;5053214;28;20263;-79
2024/03/04 08:56:01;;;;;;;40.45;35.95;;;12.50;99.90;;;;;;5052720;28;20229;-79
2024/03/04 08:58:28;;;;;;;40.25;35.92;;;12.60;99.90;;;;;;5052959;28;20221;-79
2024/03/04 09:00:56;;;;;;;40.63;36.22;;;12.60;99.90;;;;;;5053792;28;20236;-79
2024/03/04 09:03:24;;;;;;;40.15;35.78;;;12.70;99.90;;;;;;5052812;28;20248;-79
2024/03/04 09:05:51;;;;;;;41.33;36.25;;;12.60;99.90;;;;;;5053621;28;20613;-78
2024/03/04 09:08:18;;;;;;;43.55;37.65;;;12.60;99.90;;;;;;5053529;28;20548;-78
2024/03/04 09:10:45;;;;;;;44.83;38.53;;;12.70;99.90;;;;;;5052912;28;20232;-78
2024/03/04 09:13:12;;;;;;;43.40;38.67;;;12.80;99.90;;;;;;5053361;28;20229;-79
2024/03/04 09:15:40;;;;;;;43.67;37.65;;;12.80;99.90;;;;;;5052669;28;20239;-79
2024/03/04 09:18:08;;;;;;;41.78;37.25;;;12.80;99.90;;;;;;5053202;28;20221;-76
2024/03/04 09:20:35;;;;;;;45.35;36.28;;;12.90;99.90;;;;;;5052412;28;20249;-77
2024/03/04 09:23:07;;;;;;;41.28;33.53;;;12.90;99.90;;;;;;5053017;28;20228;-76
2024/03/04 09:25:34;;;;;;;41.85;36.90;;;12.90;99.90;;;;;;5043773;28;20232;-76
2024/03/04 09:28:01;;;;;;;40.15;35.13;;;13.00;99.90;;;;;;5052895;28;20233;-79
2024/03/04 09:30:28;;;;;;;39.28;35.03;;;13.10;99.90;;;;;;5052743;28;20311;-77
2024/03/04 09:32:55;;;;;;;41.30;37.03;;;13.10;99.90;;;;;;5053055;28;20231;-77
2024/03/04 09:35:24;;;;;;;43.07;37.50;;;13.20;99.90;;;;;;5052735;28;20747;-76
2024/03/04 09:37:51;;;;;;;37.13;32.78;;;13.30;99.90;;;;;;5064498;28;20474;-79
2024/03/04 09:40:19;;;;;;;41.40;35.47;;;13.40;99.90;;;;;;5057465;28;20250;-76
2024/03/04 09:42:48;;;;;;;42.00;35.10;;;13.40;99.90;;;;;;5052667;28;20232;-76
2024/03/04 09:45:16;;;;;;;43.63;36.45;;;13.50;99.90;;;;;;5052750;28;20224;-76
2024/03/04 09:47:48;;;;;;;41.17;35.70;;;13.50;99.90;;;;;;5052510;28;20221;-76
2024/03/04 09:50:17;;;;;;;41.58;36.75;;;13.50;99.90;;;;;;5053180;28;20686;-76
2024/03/04 09:52:47;;;;;;;41.95;37.45;;;13.60;99.90;;;;;;5052451;28;20236;-76
2024/03/04 09:55:14;;;;;;;41.60;37.10;;;13.50;99.90;;;;;;5052934;28;20228;-77
2024/03/04 09:57:42;;;;;;;39.10;34.53;;;13.60;99.90;;;;;;5052192;28;20619;-77
2024/03/04 10:00:13;;;;;;;46.90;38.75;;;13.70;99.90;;;;;;5052850;28;20481;-77
2024/03/04 10:02:43;;;;;;;40.13;34.53;;;13.70;99.90;;;;;;5052194;28;20649;-79
2024/03/04 10:05:10;;;;;;;39.80;35.40;;;13.80;99.90;;;;;;5052916;28;20471;-77
2024/03/04 10:07:41;;;;;;;41.93;37.57;;;13.80;99.90;;;;;;5051960;28;20467;-79
2024/03/04 10:10:12;;;;;;;38.13;34.07;;;13.80;99.90;;;;;;5052865;28;20467;-80
2024/03/04 10:12:39;;;;;;;43.67;37.70;;;13.80;99.90;;;;;;5051696;28;20556;-78
2024/03/04 10:15:09;;;;;;;45.20;39.07;;;13.80;99.90;;;;;;5052829;28;20464;-78
2024/03/04 10:17:37;;;;;;;40.77;36.47;;;13.80;99.90;;;;;;5052497;28;20459;-79
2024/03/04 10:20:06;;;;;;;39.88;35.60;;;13.80;99.90;;;;;;5052648;28;20467;-79
2024/03/04 10:22:34;;;;;;;44.13;37.87;;;13.90;99.90;;;;;;5052029;28;20240;-79
2024/03/04 10:25:05;;;;;;;42.38;37.97;;;13.80;99.90;;;;;;5052440;28;20973;-80
2024/03/04 10:27:38;;;;;;;40.47;36.23;;;13.90;99.90;;;;;;5052016;28;20270;-79
2024/03/04 10:30:10;;;;;;;40.03;34.97;;;13.90;99.90;;;;;;5052482;28;20490;-79
2024/03/04 10:32:38;;;;;;;44.15;38.35;;;13.90;99.90;;;;;;5051959;28;20887;-79
2024/03/04 10:35:06;;;;;;;50.27;40.30;;;13.80;99.90;;;;;;5052236;28;20225;-79
2024/03/04 10:37:33;;;;;;;44.67;37.40;;;13.80;99.90;;;;;;5053413;28;20475;-79
2024/03/04 10:40:00;;;;;;;48.22;38.42;;;13.70;99.90;;;;;;5056228;28;20251;-77
2024/03/04 10:42:28;;;;;;;45.80;40.40;;;13.70;99.90;;;;;;5055216;28;20224;-79
2024/03/04 10:45:00;;;;;;;44.00;39.30;;;13.70;99.90;;;;;;5055404;28;20798;-76
2024/03/04 10:47:29;;;;;;;45.17;37.97;;;13.70;99.90;;;;;;5056100;28;20984;-77
2024/03/04 10:49:56;;;;;;;41.20;36.72;;;13.80;99.90;;;;;;5055710;28;20482;-77
2024/03/04 10:52:23;;;;;;;44.33;39.60;;;13.80;99.90;;;;;;5055884;28;20231;-77
2024/03/04 10:54:51;;;;;;;44.00;39.37;;;13.80;99.90;;;;;;5055209;28;20471;-77
2024/03/04 10:57:28;;;;;;;39.30;35.10;;;13.80;99.90;;;;;;5055785;28;20478;-77
2024/03/04 10:59:58;;;;;;;45.47;40.20;;;13.90;99.90;;;;;;5055337;28;20494;-77
2024/03/04 11:02:37;;;;;;;41.70;37.23;;;14.00;99.90;;;;;;5055679;28;20467;-77
2024/03/04 11:05:09;;;;;;;44.77;39.87;;;14.00;99.90;;;;;;5055305;28;20474;-77
2024/03/04 11:07:43;;;;;;;44.70;39.10;;;14.00;99.90;;;;;;5055708;28;20467;-77
2024/03/04 11:10:16;;;;;;;46.10;38.83;;;14.00;99.90;;;;;;5055489;28;20477;-77
2024/03/04 11:12:47;;;;;;;43.30;38.63;;;14.10;99.90;;;;;;5055453;28;20475;-77
2024/03/04 11:15:18;;;;;;;47.23;41.40;;;14.10;99.90;;;;;;5055277;28;20463;-77
2024/03/04 11:17:51;;;;;;;43.80;38.97;;;14.10;99.90;;;;;;5055114;28;20471;-77
2024/03/04 11:20:20;;;;;;;42.40;37.58;;;14.10;99.90;;;;;;5054798;28;20347;-77
2024/03/04 11:22:48;;;;;;;48.20;42.83;;;14.10;99.90;;;;;;5055192;28;20229;-77
2024/03/04 11:25:17;;;;;;;43.67;38.87;;;14.10;99.90;;;;;;5055043;28;20459;-77
2024/03/04 11:27:46;;;;;;;42.27;37.67;;;14.20;99.90;;;;;;5055305;28;20978;-77
2024/03/04 11:30:15;;;;;;;47.87;42.00;;;14.20;99.90;;;;;;5054297;28;20470;-77
2024/03/04 11:32:42;;;;;;;48.40;43.35;;;14.20;99.90;;;;;;5055206;28;20471;-77
2024/03/04 11:35:14;;;;;;;44.83;40.03;;;14.10;99.90;;;;;;5054569;28;20257;-77
2024/03/04 11:37:51;;;;;;;42.90;38.30;;;14.10;99.90;;;;;;5055223;28;20467;-77
2024/03/04 11:40:23;;;;;;;48.67;43.67;;;14.10;99.90;;;;;;5054632;28;20470;-77
2024/03/04 11:42:51;;;;;;;48.53;43.33;;;14.10;99.90;;;;;;5055024;28;20502;-77
2024/03/04 11:45:22;;;;;;;45.67;41.00;;;14.00;99.90;;;;;;5054547;28;21016;-77
2024/03/04 11:47:49;;;;;;;45.47;40.37;;;14.00;99.90;;;;;;5054731;28;20490;-77
2024/03/04 11:50:46;;;;;;;41.90;37.00;;;14.00;99.90;;;;;;5054635;28;20475;-77
2024/03/04 11:53:27;;;;;;;40.27;36.33;;;14.10;99.90;;;;;;5054366;28;20475;-77
2024/03/04 11:55:55;;;;;;;43.23;38.60;;;14.20;99.90;;;;;;5054911;28;20471;-77
2024/03/04 11:58:23;;;;;;;50.50;43.63;;;14.30;99.90;;;;;;5054189;28;20455;-77
2024/03/04 12:00:52;;;;;;;48.07;42.23;;;14.40;99.90;;;;;;5054783;28;20558;-77
2024/03/04 12:03:20;;;;;;;47.80;42.73;;;14.50;99.90;;;;;;5054405;28;20475;-77
2024/03/04 12:05:47;;;;;;;52.23;45.60;;;14.50;99.90;;;;;;5054500;28;20529;-77
2024/03/04 12:08:14;;;;;;;47.77;41.63;;;14.50;99.90;;;;;;5054151;28;20491;-77
2024/03/04 12:10:42;;;;;;;47.73;42.33;;;14.50;99.90;;;;;;5054443;28;20554;-77
2024/03/04 12:13:11;;;;;;;46.50;41.57;;;14.50;99.90;;;;;;5053976;28;20463;-77
2024/03/04 12:15:41;;;;;;;44.30;39.60;;;14.50;99.90;;;;;;5054387;28;20467;-78
2024/03/04 12:18:10;;;;;;;48.93;43.73;;;14.60;99.90;;;;;;5054527;28;20482;-78
2024/03/04 12:20:37;;;;;;;51.23;45.87;;;14.60;99.90;;;;;;5054487;28;20550;-77
2024/03/04 12:23:05;;;;;;;46.50;41.27;;;14.60;99.90;;;;;;5053900;28;20937;-77
2024/03/04 12:25:33;;;;;;;46.27;41.30;;;14.70;99.90;;;;;;5054582;28;20538;-77
2024/03/04 12:28:00;;;;;;;46.90;42.10;;;14.70;99.90;;;;;;5053742;28;20468;-77
2024/03/04 12:30:27;;;;;;;47.23;42.27;;;14.70;99.90;;;;;;5054185;28;20489;-76
2024/03/04 12:33:00;;;;;;;45.17;40.40;;;14.70;99.90;;;;;;5054063;28;20471;-77